Time,TemperatureF,DewpointF,PressureIn,WindDirection,WindDirectionDegrees,WindSpeedMPH,WindSpeedGustMPH,Humidity,HourlyPrecipIn,Conditions,Clouds,dailyrainin,SoftwareType,DateUTC
2013-01-10 00:00:00,31.3,27.0,30.41,WSW,258,0.0,0.0,84,0.00,,,0.00,Wunderground v.1.15,2013-01-10 05:00:00,
2013-01-10 00:04:00,31.3,27.0,30.41,West,260,0.0,5.0,84,0.00,,,0.00,Wunderground v.1.15,2013-01-10 05:04:00,
2013-01-10 00:10:00,31.0,27.3,30.41,West,260,0.0,0.0,86,0.00,,,0.00,Wunderground v.1.15,2013-01-10 05:10:00,
2013-01-10 00:15:00,30.6,27.2,30.41,West,260,0.0,0.0,87,0.00,,,0.00,Wunderground v.1.15,2013-01-10 05:15:00,
2013-01-10 00:17:00,30.4,27.3,30.41,West,260,0.0,0.0,88,0.00,,,0.00,Wunderground v.1.15,2013-01-10 05:17:00,
2013-01-10 00:22:00,30.3,27.4,30.41,West,260,0.0,0.0,89,0.00,,,0.00,Wunderground v.1.15,2013-01-10 05:22:00,
2013-01-10 00:28:00,30.0,27.4,30.41,West,260,0.0,0.0,90,0.00,,,0.00,Wunderground v.1.15,2013-01-10 05:28:00,
2013-01-10 00:34:00,29.7,27.7,30.43,West,260,0.0,0.0,92,0.00,,,0.00,Wunderground v.1.15,2013-01-10 05:34:00,
2013-01-10 00:39:00,29.5,28.2,30.43,West,260,0.0,0.0,95,0.00,,,0.00,Wunderground v.1.15,2013-01-10 05:39:00,
2013-01-10 00:44:00,29.3,29.3,30.44,West,260,0.0,0.0,100,0.00,,,0.00,Wunderground v.1.15,2013-01-10 05:44:00,
2013-01-10 00:50:00,29.1,29.1,30.44,West,260,0.0,0.0,100,0.00,,,0.00,Wunderground v.1.15,2013-01-10 05:50:00,
2013-01-10 00:55:00,29.0,29.0,30.44,West,260,0.0,0.0,100,0.00,,,0.00,Wunderground v.1.15,2013-01-10 05:55:00,
2013-01-10 01:01:00,28.8,28.8,30.45,West,260,0.0,0.0,100,0.00,,,0.00,Wunderground v.1.15,2013-01-10 06:01:00,
2013-01-10 01:06:00,28.8,28.8,30.45,WSW,258,0.0,0.0,100,0.00,,,0.00,Wunderground v.1.15,2013-01-10 06:06:00,
2013-01-10 01:12:00,28.7,28.7,30.45,West,260,0.0,0.0,100,0.00,,,0.00,Wunderground v.1.15,2013-01-10 06:12:00,
2013-01-10 01:17:00,28.5,28.5,30.46,West,260,0.0,0.0,100,0.00,,,0.00,Wunderground v.1.15,2013-01-10 06:17:00,
2013-01-10 01:23:00,28.2,28.2,30.46,WSW,258,0.0,0.0,100,0.00,,,0.00,Wunderground v.1.15,2013-01-10 06:23:00,
2013-01-10 01:29:00,28.2,28.2,30.46,West,260,0.0,0.0,100,0.00,,,0.00,Wunderground v.1.15,2013-01-10 06:29:00,
2013-01-10 01:34:00,28.1,28.1,30.46,West,260,0.0,0.0,100,0.00,,,0.00,Wunderground v.1.15,2013-01-10 06:34:00,
2013-01-10 01:39:00,27.9,27.9,30.46,WSW,258,0.0,0.0,100,0.00,,,0.00,Wunderground v.1.15,2013-01-10 06:39:00,
2013-01-10 01:44:00,27.8,27.8,30.46,West,260,0.0,0.0,100,0.00,,,0.00,Wunderground v.1.15,2013-01-10 06:44:00,
2013-01-10 01:50:00,27.6,27.6,30.46,West,260,0.0,0.0,100,0.00,,,0.00,Wunderground v.1.15,2013-01-10 06:50:00,
2013-01-10 01:56:00,27.5,27.5,30.46,WSW,258,0.0,0.0,100,0.00,,,0.00,Wunderground v.1.15,2013-01-10 06:56:00,
2013-01-10 02:01:00,27.3,27.3,30.47,West,260,0.0,0.0,100,0.00,,,0.00,Wunderground v.1.15,2013-01-10 07:01:00,
2013-01-10 02:07:00,27.3,27.3,30.47,West,260,0.0,0.0,100,0.00,,,0.00,Wunderground v.1.15,2013-01-10 07:07:00,
2013-01-10 02:13:00,27.2,27.2,30.47,West,260,0.0,0.0,100,0.00,,,0.00,Wunderground v.1.15,2013-01-10 07:13:00,
2013-01-10 02:18:00,27.0,27.0,30.47,West,260,0.0,0.0,100,0.00,,,0.00,Wunderground v.1.15,2013-01-10 07:18:00,
2013-01-10 02:24:00,27.0,27.0,30.47,WSW,258,0.0,0.0,100,0.00,,,0.00,Wunderground v.1.15,2013-01-10 07:24:00,
2013-01-10 02:30:00,26.9,26.9,30.47,West,260,0.0,0.0,100,0.00,,,0.00,Wunderground v.1.15,2013-01-10 07:30:00,
2013-01-10 02:35:00,26.9,26.9,30.47,West,260,0.0,0.0,100,0.00,,,0.00,Wunderground v.1.15,2013-01-10 07:35:00,
2013-01-10 02:40:00,26.7,26.7,30.47,West,260,0.0,0.0,100,0.00,,,0.00,Wunderground v.1.15,2013-01-10 07:40:00,
2013-01-10 02:46:00,26.7,26.7,30.47,West,260,0.0,0.0,100,0.00,,,0.00,Wunderground v.1.15,2013-01-10 07:46:00,
2013-01-10 02:51:00,26.6,26.6,30.47,WSW,258,0.0,0.0,100,0.00,,,0.00,Wunderground v.1.15,2013-01-10 07:51:00,
2013-01-10 02:57:00,26.6,26.6,30.47,West,260,0.0,0.0,100,0.00,,,0.00,Wunderground v.1.15,2013-01-10 07:57:00,
2013-01-10 03:02:00,26.4,26.4,30.47,West,260,0.0,0.0,100,0.00,,,0.00,Wunderground v.1.15,2013-01-10 08:02:00,
2013-01-10 03:08:00,26.4,26.4,30.47,West,260,0.0,0.0,100,0.00,,,0.00,Wunderground v.1.15,2013-01-10 08:08:00,
2013-01-10 03:14:00,26.4,26.4,30.47,West,260,0.0,0.0,100,0.00,,,0.00,Wunderground v.1.15,2013-01-10 08:14:00,
2013-01-10 03:19:00,26.3,26.3,30.48,WSW,258,0.0,0.0,100,0.00,,,0.00,Wunderground v.1.15,2013-01-10 08:19:00,
2013-01-10 03:25:00,26.1,26.1,30.48,West,260,0.0,0.0,100,0.00,,,0.00,Wunderground v.1.15,2013-01-10 08:25:00,
2013-01-10 03:30:00,26.0,26.0,30.48,West,260,0.0,0.0,100,0.00,,,0.00,Wunderground v.1.15,2013-01-10 08:30:00,
2013-01-10 03:36:00,26.0,26.0,30.48,West,260,0.0,0.0,100,0.00,,,0.00,Wunderground v.1.15,2013-01-10 08:36:00,
2013-01-10 03:41:00,25.8,25.8,30.48,West,260,0.0,0.0,100,0.00,,,0.00,Wunderground v.1.15,2013-01-10 08:41:00,
2013-01-10 03:47:00,25.7,25.7,30.48,West,260,0.0,0.0,100,0.00,,,0.00,Wunderground v.1.15,2013-01-10 08:47:00,
2013-01-10 03:52:00,25.7,25.7,30.48,West,260,0.0,0.0,100,0.00,,,0.00,Wunderground v.1.15,2013-01-10 08:52:00,
2013-01-10 03:58:00,25.6,25.6,30.48,West,260,0.0,0.0,100,0.00,,,0.00,Wunderground v.1.15,2013-01-10 08:58:00,
2013-01-10 04:03:00,25.6,25.6,30.47,West,260,0.0,0.0,100,0.00,,,0.00,Wunderground v.1.15,2013-01-10 09:03:00,
2013-01-10 04:09:00,25.4,25.4,30.47,West,260,0.0,0.0,100,0.00,,,0.00,Wunderground v.1.15,2013-01-10 09:09:00,
2013-01-10 04:15:00,25.4,25.4,30.46,WSW,258,0.0,0.0,100,0.00,,,0.00,Wunderground v.1.15,2013-01-10 09:15:00,
2013-01-10 04:20:00,25.3,25.3,30.46,West,260,0.0,0.0,100,0.00,,,0.00,Wunderground v.1.15,2013-01-10 09:20:00,
2013-01-10 04:26:00,25.1,25.1,30.46,West,260,0.0,0.0,100,0.00,,,0.00,Wunderground v.1.15,2013-01-10 09:26:00,
2013-01-10 04:31:00,25.0,25.0,30.46,West,260,0.0,0.0,100,0.00,,,0.00,Wunderground v.1.15,2013-01-10 09:31:00,
2013-01-10 04:37:00,25.0,25.0,30.46,West,260,0.0,0.0,100,0.00,,,0.00,Wunderground v.1.15,2013-01-10 09:37:00,
2013-01-10 04:42:00,25.0,25.0,30.46,West,260,0.0,0.0,100,0.00,,,0.00,Wunderground v.1.15,2013-01-10 09:42:00,
2013-01-10 04:48:00,24.8,24.8,30.46,West,260,0.0,0.0,100,0.00,,,0.00,Wunderground v.1.15,2013-01-10 09:48:00,
2013-01-10 04:53:00,24.8,24.8,30.46,West,260,0.0,0.0,100,0.00,,,0.00,Wunderground v.1.15,2013-01-10 09:53:00,
2013-01-10 04:59:00,24.7,24.7,30.46,West,260,0.0,0.0,100,0.00,,,0.00,Wunderground v.1.15,2013-01-10 09:59:00,
2013-01-10 05:04:00,24.5,24.5,30.46,West,260,0.0,0.0,100,0.00,,,0.00,Wunderground v.1.15,2013-01-10 10:04:00,
2013-01-10 05:10:00,24.5,24.5,30.46,West,260,0.0,0.0,100,0.00,,,0.00,Wunderground v.1.15,2013-01-10 10:10:00,
2013-01-10 05:16:00,24.5,24.5,30.46,West,260,0.0,0.0,100,0.00,,,0.00,Wunderground v.1.15,2013-01-10 10:16:00,
2013-01-10 05:21:00,24.5,24.5,30.46,West,260,0.0,0.0,100,0.00,,,0.00,Wunderground v.1.15,2013-01-10 10:21:00,
2013-01-10 05:26:00,24.5,24.5,30.46,West,260,0.0,0.0,100,0.00,,,0.00,Wunderground v.1.15,2013-01-10 10:26:00,
2013-01-10 05:32:00,24.4,24.4,30.46,West,260,0.0,0.0,100,0.00,,,0.00,Wunderground v.1.15,2013-01-10 10:32:00,
2013-01-10 05:37:00,24.5,24.5,30.46,West,260,0.0,0.0,100,0.00,,,0.00,Wunderground v.1.15,2013-01-10 10:37:00,
2013-01-10 05:44:00,24.5,24.5,30.46,West,260,0.0,0.0,100,0.00,,,0.00,Wunderground v.1.15,2013-01-10 10:44:00,
2013-01-10 05:49:00,24.5,24.5,30.46,West,260,0.0,0.0,100,0.00,,,0.00,Wunderground v.1.15,2013-01-10 10:49:00,
2013-01-10 05:54:00,24.5,24.5,30.46,West,260,0.0,0.0,100,0.00,,,0.00,Wunderground v.1.15,2013-01-10 10:54:00,
2013-01-10 06:00:00,24.5,24.5,30.46,West,260,0.0,0.0,100,0.00,,,0.00,Wunderground v.1.15,2013-01-10 11:00:00,
2013-01-10 06:06:00,24.5,24.5,30.46,West,260,0.0,0.0,100,0.00,,,0.00,Wunderground v.1.15,2013-01-10 11:06:00,
2013-01-10 06:11:00,24.4,24.4,30.46,West,260,0.0,0.0,100,0.00,,,0.00,Wunderground v.1.15,2013-01-10 11:11:00,
2013-01-10 06:17:00,24.4,24.4,30.47,West,260,0.0,0.0,100,0.00,,,0.00,Wunderground v.1.15,2013-01-10 11:17:00,
2013-01-10 06:22:00,24.4,24.4,30.47,West,260,0.0,0.0,100,0.00,,,0.00,Wunderground v.1.15,2013-01-10 11:22:00,
2013-01-10 06:28:00,24.2,24.2,30.47,West,260,0.0,0.0,100,0.00,,,0.00,Wunderground v.1.15,2013-01-10 11:28:00,
2013-01-10 06:34:00,24.2,24.2,30.47,West,260,0.0,0.0,100,0.00,,,0.00,Wunderground v.1.15,2013-01-10 11:34:00,
2013-01-10 06:39:00,24.2,24.2,30.47,West,260,0.0,0.0,100,0.00,,,0.00,Wunderground v.1.15,2013-01-10 11:39:00,
2013-01-10 06:44:00,24.2,24.2,30.47,West,260,0.0,0.0,100,0.00,,,0.00,Wunderground v.1.15,2013-01-10 11:44:00,
2013-01-10 06:50:00,24.2,24.2,30.46,West,260,0.0,0.0,100,0.00,,,0.00,Wunderground v.1.15,2013-01-10 11:50:00,
2013-01-10 06:56:00,24.2,24.2,30.46,West,260,0.0,0.0,100,0.00,,,0.00,Wunderground v.1.15,2013-01-10 11:56:00,
2013-01-10 07:01:00,24.1,24.1,30.47,West,260,0.0,0.0,100,0.00,,,0.00,Wunderground v.1.15,2013-01-10 12:01:00,
2013-01-10 07:07:00,24.2,24.2,30.47,West,260,0.0,0.0,100,0.00,,,0.00,Wunderground v.1.15,2013-01-10 12:07:00,
2013-01-10 07:12:00,24.1,24.1,30.47,West,260,0.0,0.0,100,0.00,,,0.00,Wunderground v.1.15,2013-01-10 12:12:00,
2013-01-10 07:19:00,24.1,24.1,30.46,West,260,0.0,0.0,100,0.00,,,0.00,Wunderground v.1.15,2013-01-10 12:19:00,
2013-01-10 07:24:00,24.1,24.1,30.46,West,260,0.0,0.0,100,0.00,,,0.00,Wunderground v.1.15,2013-01-10 12:24:00,
2013-01-10 07:29:00,24.2,24.2,30.46,West,260,0.0,0.0,100,0.00,,,0.00,Wunderground v.1.15,2013-01-10 12:29:00,
2013-01-10 07:34:00,24.2,24.2,30.46,West,260,0.0,0.0,100,0.00,,,0.00,Wunderground v.1.15,2013-01-10 12:34:00,
2013-01-10 07:40:00,24.4,24.4,30.46,West,260,0.0,0.0,100,0.00,,,0.00,Wunderground v.1.15,2013-01-10 12:40:00,
2013-01-10 07:45:00,24.4,24.4,30.45,West,260,0.0,0.0,100,0.00,,,0.00,Wunderground v.1.15,2013-01-10 12:45:00,
2013-01-10 07:50:00,24.4,24.4,30.45,West,260,0.0,0.0,100,0.00,,,0.00,Wunderground v.1.15,2013-01-10 12:50:00,
2013-01-10 07:56:00,24.5,24.5,30.45,West,261,0.0,0.0,100,0.00,,,0.00,Wunderground v.1.15,2013-01-10 12:56:00,
2013-01-10 08:01:00,24.5,24.5,30.46,West,260,0.0,0.0,100,0.00,,,0.00,Wunderground v.1.15,2013-01-10 13:01:00,
2013-01-10 08:07:00,24.7,24.7,30.46,West,260,0.0,0.0,100,0.00,,,0.00,Wunderground v.1.15,2013-01-10 13:07:00,
2013-01-10 08:12:00,24.8,24.8,30.46,West,260,0.0,0.0,100,0.00,,,0.00,Wunderground v.1.15,2013-01-10 13:12:00,
2013-01-10 08:19:00,24.8,24.8,30.46,West,260,0.0,0.0,100,0.00,,,0.00,Wunderground v.1.15,2013-01-10 13:19:00,
2013-01-10 08:24:00,24.8,24.8,30.46,West,260,0.0,0.0,100,0.00,,,0.00,Wunderground v.1.15,2013-01-10 13:24:00,
2013-01-10 08:29:00,25.0,25.0,30.46,West,260,0.0,0.0,100,0.00,,,0.00,Wunderground v.1.15,2013-01-10 13:29:00,
2013-01-10 08:34:00,25.0,25.0,30.47,West,260,0.0,0.0,100,0.00,,,0.00,Wunderground v.1.15,2013-01-10 13:34:00,
2013-01-10 08:40:00,25.1,25.1,30.47,West,260,0.0,0.0,100,0.00,,,0.00,Wunderground v.1.15,2013-01-10 13:40:00,
2013-01-10 08:45:00,25.1,25.1,30.47,West,260,0.0,0.0,100,0.00,,,0.00,Wunderground v.1.15,2013-01-10 13:45:00,
2013-01-10 08:51:00,25.3,25.3,30.47,West,260,0.0,0.0,100,0.00,,,0.00,Wunderground v.1.15,2013-01-10 13:51:00,
2013-01-10 08:56:00,25.4,25.4,30.47,West,261,0.0,0.0,100,0.00,,,0.00,Wunderground v.1.15,2013-01-10 13:56:00,
2013-01-10 09:02:00,25.6,25.6,30.47,West,261,0.0,0.0,100,0.00,,,0.00,Wunderground v.1.15,2013-01-10 14:02:00,
2013-01-10 09:07:00,25.8,25.8,30.47,West,263,0.0,0.0,100,0.00,,,0.00,Wunderground v.1.15,2013-01-10 14:07:00,
2013-01-10 09:14:00,26.1,26.1,30.47,West,263,0.0,0.0,100,0.00,,,0.00,Wunderground v.1.15,2013-01-10 14:14:00,
2013-01-10 09:19:00,26.6,26.6,30.47,West,263,0.0,0.0,100,0.00,,,0.00,Wunderground v.1.15,2013-01-10 14:19:00,
2013-01-10 09:24:00,27.0,27.0,30.47,West,263,0.0,0.0,100,0.00,,,0.00,Wunderground v.1.15,2013-01-10 14:24:00,
2013-01-10 09:29:00,27.5,27.5,30.47,West,263,0.0,0.0,100,0.00,,,0.00,Wunderground v.1.15,2013-01-10 14:29:00,
2013-01-10 09:35:00,28.1,28.1,30.47,West,263,0.0,0.0,100,0.00,,,0.00,Wunderground v.1.15,2013-01-10 14:35:00,
2013-01-10 09:41:00,28.5,28.5,30.47,West,263,0.0,0.0,100,0.00,,,0.00,Wunderground v.1.15,2013-01-10 14:41:00,
2013-01-10 09:46:00,29.1,29.1,30.46,West,263,0.0,0.0,100,0.00,,,0.00,Wunderground v.1.15,2013-01-10 14:46:00,
2013-01-10 09:51:00,29.7,29.7,30.46,West,263,0.0,0.0,100,0.00,,,0.00,Wunderground v.1.15,2013-01-10 14:51:00,
2013-01-10 09:57:00,30.3,30.3,30.46,West,263,0.0,1.0,100,0.00,,,0.00,Wunderground v.1.15,2013-01-10 14:57:00,
2013-01-10 10:02:00,30.9,30.9,30.46,West,263,0.0,0.0,100,0.00,,,0.00,Wunderground v.1.15,2013-01-10 15:02:00,
2013-01-10 10:09:00,31.5,31.5,30.46,West,264,0.0,2.0,100,0.00,,,0.00,Wunderground v.1.15,2013-01-10 15:09:00,
2013-01-10 10:14:00,32.1,32.1,30.46,West,265,0.0,0.0,100,0.00,,,0.00,Wunderground v.1.15,2013-01-10 15:14:00,
2013-01-10 10:19:00,32.7,31.7,30.45,West,264,0.0,2.0,96,0.00,,,0.00,Wunderground v.1.15,2013-01-10 15:19:00,
2013-01-10 10:25:00,33.2,30.3,30.45,West,265,0.0,2.0,89,0.00,,,0.00,Wunderground v.1.15,2013-01-10 15:25:00,
2013-01-10 10:30:00,34.0,30.3,30.44,East,86,1.0,1.0,86,0.00,,,0.00,Wunderground v.1.15,2013-01-10 15:30:00,
2013-01-10 10:36:00,34.6,30.3,30.44,ENE,76,1.0,1.0,84,0.00,,,0.00,Wunderground v.1.15,2013-01-10 15:36:00,
2013-01-10 10:41:00,35.5,29.9,30.44,ENE,62,1.0,5.0,80,0.00,,,0.00,Wunderground v.1.15,2013-01-10 15:41:00,
2013-01-10 10:47:00,36.0,29.8,30.43,ENE,75,2.0,7.0,78,0.00,,,0.00,Wunderground v.1.15,2013-01-10 15:47:00,
2013-01-10 10:52:00,36.6,29.1,30.43,ENE,68,3.0,5.0,74,0.00,,,0.00,Wunderground v.1.15,2013-01-10 15:52:00,
2013-01-10 10:58:00,36.8,28.6,30.43,East,93,4.0,8.0,72,0.00,,,0.00,Wunderground v.1.15,2013-01-10 15:58:00,
2013-01-10 11:04:00,36.9,28.7,30.42,East,88,3.0,6.0,72,0.00,,,0.00,Wunderground v.1.15,2013-01-10 16:04:00,
2013-01-10 11:10:00,37.0,28.8,30.42,East,80,3.0,6.0,72,0.00,,,0.00,Wunderground v.1.15,2013-01-10 16:10:00,
2013-01-10 11:15:00,37.0,27.8,30.42,ENE,66,2.0,4.0,69,0.00,,,0.00,Wunderground v.1.15,2013-01-10 16:15:00,
2013-01-10 11:21:00,37.3,28.4,30.42,ENE,58,2.0,2.0,70,0.00,,,0.00,Wunderground v.1.15,2013-01-10 16:21:00,
2013-01-10 11:26:00,37.3,28.1,30.42,East,86,2.0,6.0,69,0.00,,,0.00,Wunderground v.1.15,2013-01-10 16:26:00,
2013-01-10 11:31:00,37.3,28.1,30.41,East,89,3.0,7.0,69,0.00,,,0.00,Wunderground v.1.15,2013-01-10 16:31:00,
2013-01-10 11:37:00,37.3,28.1,30.41,East,97,3.0,7.0,69,0.00,,,0.00,Wunderground v.1.15,2013-01-10 16:37:00,
2013-01-10 11:42:00,37.3,27.7,30.41,East,82,4.0,7.0,68,0.00,,,0.00,Wunderground v.1.15,2013-01-10 16:42:00,
2013-01-10 11:48:00,37.5,28.2,30.40,East,88,4.0,7.0,69,0.00,,,0.00,Wunderground v.1.15,2013-01-10 16:48:00,
2013-01-10 11:53:00,37.8,28.2,30.40,ENE,71,5.0,5.0,68,0.00,,,0.00,Wunderground v.1.15,2013-01-10 16:53:00,
2013-01-10 11:59:00,38.2,27.5,30.40,ENE,72,5.0,8.0,65,0.00,,,0.00,Wunderground v.1.15,2013-01-10 16:59:00,
2013-01-10 12:04:00,38.5,28.1,30.39,East,86,4.0,8.0,66,0.00,,,0.00,Wunderground v.1.15,2013-01-10 17:04:00,
2013-01-10 12:10:00,39.1,28.7,30.39,East,93,3.0,8.0,66,0.00,,,0.00,Wunderground v.1.15,2013-01-10 17:10:00,
2013-01-10 12:15:00,39.1,28.3,30.38,ENE,73,3.0,3.0,65,0.00,,,0.00,Wunderground v.1.15,2013-01-10 17:15:00,
2013-01-10 12:21:00,39.3,28.5,30.38,ENE,73,2.0,4.0,65,0.00,,,0.00,Wunderground v.1.15,2013-01-10 17:21:00,
2013-01-10 12:26:00,39.3,28.5,30.38,ENE,73,2.0,4.0,65,0.00,,,0.00,Wunderground v.1.15,2013-01-10 17:26:00,
2013-01-10 12:32:00,39.5,28.3,30.36,East,79,2.0,6.0,64,0.00,,,0.00,Wunderground v.1.15,2013-01-10 17:32:00,
2013-01-10 12:37:00,39.5,28.3,30.36,ENE,69,3.0,6.0,64,0.00,,,0.00,Wunderground v.1.15,2013-01-10 17:37:00,
2013-01-10 12:43:00,40.1,28.5,30.36,ENE,75,2.0,3.0,63,0.00,,,0.00,Wunderground v.1.15,2013-01-10 17:43:00,
2013-01-10 12:48:00,40.3,27.9,30.35,ENE,71,3.0,7.0,61,0.00,,,0.00,Wunderground v.1.15,2013-01-10 17:48:00,
2013-01-10 12:54:00,40.5,28.1,30.35,ENE,73,5.0,7.0,61,0.00,,,0.00,Wunderground v.1.15,2013-01-10 17:54:00,
2013-01-10 12:59:00,40.6,28.2,30.35,East,80,5.0,7.0,61,0.00,,,0.00,Wunderground v.1.15,2013-01-10 17:59:00,
2013-01-10 13:04:00,40.9,27.2,30.33,East,86,4.0,12.0,58,0.00,,,0.00,Wunderground v.1.15,2013-01-10 18:04:00,
2013-01-10 13:10:00,41.2,27.9,30.33,East,96,4.0,12.0,59,0.00,,,0.00,Wunderground v.1.15,2013-01-10 18:10:00,
2013-01-10 13:15:00,41.6,27.5,30.33,ENE,76,4.0,5.0,57,0.00,,,0.00,Wunderground v.1.15,2013-01-10 18:15:00,
2013-01-10 13:21:00,41.8,28.1,30.33,East,95,4.0,5.0,58,0.00,,,0.00,Wunderground v.1.15,2013-01-10 18:21:00,
2013-01-10 13:26:00,42.3,27.7,30.33,East,96,4.0,6.0,56,0.00,,,0.00,Wunderground v.1.15,2013-01-10 18:26:00,
2013-01-10 13:32:00,42.6,27.1,30.32,East,99,5.0,7.0,54,0.00,,,0.00,Wunderground v.1.15,2013-01-10 18:32:00,
2013-01-10 13:37:00,42.2,25.3,30.32,East,86,6.0,8.0,51,0.00,,,0.00,Wunderground v.1.15,2013-01-10 18:37:00,
2013-01-10 13:43:00,42.2,25.8,30.32,East,88,6.0,12.0,52,0.00,,,0.00,Wunderground v.1.15,2013-01-10 18:43:00,
2013-01-10 13:48:00,42.2,26.7,30.31,ENE,68,6.0,12.0,54,0.00,,,0.00,Wunderground v.1.15,2013-01-10 18:48:00,
2013-01-10 13:54:00,42.6,27.1,30.31,East,83,5.0,6.0,54,0.00,,,0.00,Wunderground v.1.15,2013-01-10 18:54:00,
2013-01-10 13:59:00,42.5,26.1,30.31,East,95,5.0,7.0,52,0.00,,,0.00,Wunderground v.1.15,2013-01-10 18:59:00,
2013-01-10 14:04:00,42.3,26.4,30.30,ENE,68,4.0,10.0,53,0.00,,,0.00,Wunderground v.1.15,2013-01-10 19:04:00,
2013-01-10 14:10:00,42.3,27.3,30.30,East,85,4.0,10.0,55,0.00,,,0.00,Wunderground v.1.15,2013-01-10 19:10:00,
2013-01-10 14:16:00,42.2,27.2,30.29,East,82,4.0,11.0,55,0.00,,,0.00,Wunderground v.1.15,2013-01-10 19:16:00,
2013-01-10 14:21:00,42.1,27.5,30.29,ENE,64,5.0,6.0,56,0.00,,,0.00,Wunderground v.1.15,2013-01-10 19:21:00,
2013-01-10 14:27:00,42.1,27.5,30.29,East,85,4.0,8.0,56,0.00,,,0.00,Wunderground v.1.15,2013-01-10 19:27:00,
2013-01-10 14:33:00,41.9,27.8,30.28,East,90,4.0,4.0,57,0.00,,,0.00,Wunderground v.1.15,2013-01-10 19:33:00,
2013-01-10 14:39:00,41.8,27.2,30.28,ENE,75,5.0,7.0,56,0.00,,,0.00,Wunderground v.1.15,2013-01-10 19:39:00,
2013-01-10 14:44:00,41.6,26.6,30.28,ENE,72,6.0,8.0,55,0.00,,,0.00,Wunderground v.1.15,2013-01-10 19:44:00,
2013-01-10 14:50:00,41.6,27.1,30.27,ESE,109,6.0,9.0,56,0.00,,,0.00,Wunderground v.1.15,2013-01-10 19:50:00,
2013-01-10 14:55:00,41.5,27.0,30.27,ESE,103,6.0,7.0,56,0.00,,,0.00,Wunderground v.1.15,2013-01-10 19:55:00,
2013-01-10 15:01:00,41.5,27.4,30.27,East,95,6.0,14.0,57,0.00,,,0.00,Wunderground v.1.15,2013-01-10 20:01:00,
2013-01-10 15:07:00,41.3,27.6,30.27,ENE,73,7.0,17.0,58,0.00,,,0.00,Wunderground v.1.15,2013-01-10 20:07:00,
2013-01-10 15:12:00,41.3,27.6,30.27,ENE,72,6.0,6.0,58,0.00,,,0.00,Wunderground v.1.15,2013-01-10 20:12:00,
2013-01-10 15:18:00,41.3,27.2,30.26,East,83,6.0,8.0,57,0.00,,,0.00,Wunderground v.1.15,2013-01-10 20:18:00,
2013-01-10 15:24:00,41.3,26.8,30.26,East,89,4.0,9.0,56,0.00,,,0.00,Wunderground v.1.15,2013-01-10 20:24:00,
2013-01-10 15:30:00,41.2,27.1,30.25,ENE,69,4.0,9.0,57,0.00,,,0.00,Wunderground v.1.15,2013-01-10 20:30:00,
2013-01-10 15:36:00,41.2,27.5,30.25,ENE,78,5.0,6.0,58,0.00,,,0.00,Wunderground v.1.15,2013-01-10 20:36:00,
2013-01-10 15:41:00,41.1,27.0,30.25,East,83,5.0,5.0,57,0.00,,,0.00,Wunderground v.1.15,2013-01-10 20:41:00,
2013-01-10 15:47:00,41.1,28.3,30.24,East,95,6.0,9.0,60,0.00,,,0.00,Wunderground v.1.15,2013-01-10 20:47:00,
2013-01-10 15:52:00,41.1,28.3,30.24,East,88,5.0,5.0,60,0.00,,,0.00,Wunderground v.1.15,2013-01-10 20:52:00,
2013-01-10 15:58:00,40.9,27.2,30.24,East,83,4.0,8.0,58,0.00,,,0.00,Wunderground v.1.15,2013-01-10 20:58:00,
2013-01-10 16:03:00,40.8,28.0,30.24,ENE,68,5.0,14.0,60,0.00,,,0.00,Wunderground v.1.15,2013-01-10 21:03:00,
2013-01-10 16:09:00,40.8,27.6,30.24,ENE,65,5.0,14.0,59,0.00,,,0.00,Wunderground v.1.15,2013-01-10 21:09:00,
2013-01-10 16:15:00,40.8,28.0,30.23,ENE,75,4.0,7.0,60,0.00,,,0.00,Wunderground v.1.15,2013-01-10 21:15:00,
2013-01-10 16:20:00,40.6,27.4,30.23,ENE,69,4.0,5.0,59,0.00,,,0.00,Wunderground v.1.15,2013-01-10 21:20:00,
2013-01-10 16:26:00,40.6,27.0,30.23,East,86,4.0,7.0,58,0.00,,,0.00,Wunderground v.1.15,2013-01-10 21:26:00,
2013-01-10 16:32:00,40.5,27.7,30.22,East,88,5.0,8.0,60,0.00,,,0.00,Wunderground v.1.15,2013-01-10 21:32:00,
2013-01-10 16:37:00,40.5,27.7,30.22,East,79,4.0,10.0,60,0.00,,,0.00,Wunderground v.1.15,2013-01-10 21:37:00,
2013-01-10 16:42:00,40.3,27.1,30.22,East,79,5.0,9.0,59,0.00,,,0.00,Wunderground v.1.15,2013-01-10 21:42:00,
2013-01-10 16:48:00,40.3,27.5,30.21,ENE,72,5.0,9.0,60,0.00,,,0.00,Wunderground v.1.15,2013-01-10 21:48:00,
2013-01-10 16:53:00,40.3,26.7,30.21,East,80,5.0,7.0,58,0.00,,,0.00,Wunderground v.1.15,2013-01-10 21:53:00,
2013-01-10 16:59:00,40.2,27.4,30.21,East,90,5.0,9.0,60,0.00,,,0.00,Wunderground v.1.15,2013-01-10 21:59:00,
2013-01-10 17:05:00,40.2,26.6,30.20,East,93,5.0,13.0,58,0.00,,,0.00,Wunderground v.1.15,2013-01-10 22:05:00,
2013-01-10 17:11:00,40.2,27.0,30.20,ENE,73,5.0,7.0,59,0.00,,,0.00,Wunderground v.1.15,2013-01-10 22:11:00,
2013-01-10 17:17:00,40.2,26.6,30.21,ENE,73,6.0,7.0,58,0.00,,,0.00,Wunderground v.1.15,2013-01-10 22:17:00,
2013-01-10 17:22:00,40.1,26.9,30.21,East,89,5.0,5.0,59,0.00,,,0.00,Wunderground v.1.15,2013-01-10 22:22:00,
2013-01-10 17:28:00,40.1,26.9,30.21,East,90,4.0,8.0,59,0.00,,,0.00,Wunderground v.1.15,2013-01-10 22:28:00,
2013-01-10 17:34:00,39.9,27.1,30.20,East,95,4.0,5.0,60,0.00,,,0.00,Wunderground v.1.15,2013-01-10 22:34:00,
2013-01-10 17:39:00,39.9,26.7,30.20,East,92,4.0,6.0,59,0.00,,,0.00,Wunderground v.1.15,2013-01-10 22:39:00,
2013-01-10 17:45:00,39.9,26.7,30.20,East,88,4.0,7.0,59,0.00,,,0.00,Wunderground v.1.15,2013-01-10 22:45:00,
2013-01-10 17:50:00,39.9,26.3,30.20,East,95,4.0,4.0,58,0.00,,,0.00,Wunderground v.1.15,2013-01-10 22:50:00,
2013-01-10 17:55:00,39.8,27.8,30.20,ENE,68,4.0,4.0,62,0.00,,,0.00,Wunderground v.1.15,2013-01-10 22:55:00,
2013-01-10 18:01:00,39.9,26.7,30.19,ENE,75,4.0,11.0,59,0.00,,,0.00,Wunderground v.1.15,2013-01-10 23:01:00,
2013-01-10 18:07:00,39.9,26.7,30.19,East,79,5.0,11.0,59,0.00,,,0.00,Wunderground v.1.15,2013-01-10 23:07:00,
2013-01-10 18:13:00,40.1,26.5,30.19,East,90,5.0,6.0,58,0.00,,,0.00,Wunderground v.1.15,2013-01-10 23:13:00,
2013-01-10 18:19:00,40.1,26.9,30.18,ESE,102,4.0,6.0,59,0.00,,,0.00,Wunderground v.1.15,2013-01-10 23:19:00,
2013-01-10 18:24:00,40.2,27.0,30.18,East,95,3.0,5.0,59,0.00,,,0.00,Wunderground v.1.15,2013-01-10 23:24:00,
2013-01-10 18:29:00,40.1,28.1,30.18,ENE,76,4.0,7.0,62,0.00,,,0.00,Wunderground v.1.15,2013-01-10 23:29:00,
2013-01-10 18:35:00,39.8,27.8,30.19,East,88,5.0,8.0,62,0.00,,,0.00,Wunderground v.1.15,2013-01-10 23:35:00,
2013-01-10 18:41:00,39.6,28.4,30.19,East,86,5.0,8.0,64,0.00,,,0.00,Wunderground v.1.15,2013-01-10 23:41:00,
2013-01-10 18:46:00,39.6,29.2,30.18,East,96,6.0,8.0,66,0.00,,,0.00,Wunderground v.1.15,2013-01-10 23:46:00,
2013-01-10 18:52:00,39.2,28.8,30.18,East,88,6.0,6.0,66,0.00,,,0.00,Wunderground v.1.15,2013-01-10 23:52:00,
2013-01-10 18:57:00,39.1,30.1,30.18,East,97,6.0,12.0,70,0.00,,,0.00,Wunderground v.1.15,2013-01-10 23:57:00,
2013-01-10 19:02:00,38.8,30.9,30.17,ESE,107,6.0,11.0,73,0.00,,,0.00,Wunderground v.1.15,2013-01-11 00:02:00,
2013-01-10 19:09:00,38.3,30.7,30.17,ENE,65,6.0,11.0,74,0.00,,,0.00,Wunderground v.1.15,2013-01-11 00:09:00,
2013-01-10 19:14:00,38.0,32.7,30.17,East,83,6.0,7.0,81,0.04,,,0.01,Wunderground v.1.15,2013-01-11 00:14:00,
2013-01-10 19:20:00,37.8,32.5,30.15,ENE,72,6.0,8.0,81,0.04,,,0.01,Wunderground v.1.15,2013-01-11 00:20:00,
2013-01-10 19:25:00,37.8,33.1,30.15,East,85,6.0,11.0,83,0.04,,,0.01,Wunderground v.1.15,2013-01-11 00:25:00,
2013-01-10 19:31:00,37.5,33.1,30.14,East,95,6.0,6.0,84,0.00,,,0.01,Wunderground v.1.15,2013-01-11 00:31:00,
2013-01-10 19:36:00,37.3,32.9,30.14,ENE,65,5.0,10.0,84,0.00,,,0.01,Wunderground v.1.15,2013-01-11 00:36:00,
2013-01-10 19:41:00,37.3,32.6,30.14,East,82,6.0,7.0,83,0.00,,,0.01,Wunderground v.1.15,2013-01-11 00:41:00,
2013-01-10 19:47:00,37.5,32.2,30.12,ENE,75,6.0,9.0,81,0.00,,,0.01,Wunderground v.1.15,2013-01-11 00:47:00,
2013-01-10 19:53:00,37.6,32.0,30.12,East,80,5.0,8.0,80,0.00,,,0.01,Wunderground v.1.15,2013-01-11 00:53:00,
2013-01-10 19:59:00,37.8,31.6,30.12,East,95,5.0,8.0,78,0.00,,,0.01,Wunderground v.1.15,2013-01-11 00:59:00,
2013-01-10 20:04:00,37.8,32.2,30.11,East,80,6.0,14.0,80,0.00,,,0.01,Wunderground v.1.15,2013-01-11 01:04:00,
2013-01-10 20:10:00,37.9,31.7,30.11,ESE,102,7.0,7.0,78,0.00,,,0.01,Wunderground v.1.15,2013-01-11 01:10:00,
2013-01-10 20:15:00,37.8,32.2,30.10,East,88,7.0,7.0,80,0.00,,,0.01,Wunderground v.1.15,2013-01-11 01:15:00,
2013-01-10 20:20:00,37.6,31.7,30.10,ENE,69,6.0,6.0,79,0.00,,,0.01,Wunderground v.1.15,2013-01-11 01:20:00,
2013-01-10 20:25:00,37.6,32.3,30.10,ENE,64,6.0,10.0,81,0.00,,,0.01,Wunderground v.1.15,2013-01-11 01:25:00,
2013-01-10 20:31:00,37.8,32.2,30.09,East,83,6.0,6.0,80,0.00,,,0.01,Wunderground v.1.15,2013-01-11 01:31:00,
2013-01-10 20:37:00,38.0,32.1,30.09,ENE,75,6.0,9.0,79,0.00,,,0.01,Wunderground v.1.15,2013-01-11 01:37:00,
2013-01-10 20:42:00,38.2,32.6,30.09,ESE,103,6.0,9.0,80,0.00,,,0.01,Wunderground v.1.15,2013-01-11 01:42:00,
2013-01-10 20:49:00,38.2,32.3,30.08,ENE,58,6.0,9.0,79,0.00,,,0.01,Wunderground v.1.15,2013-01-11 01:49:00,
2013-01-10 20:54:00,38.5,32.9,30.08,East,93,6.0,8.0,80,0.00,,,0.01,Wunderground v.1.15,2013-01-11 01:54:00,
2013-01-10 20:59:00,38.5,32.9,30.07,ENE,69,6.0,9.0,80,0.00,,,0.01,Wunderground v.1.15,2013-01-11 01:59:00,
2013-01-10 21:06:00,38.6,33.3,30.07,ENE,78,7.0,12.0,81,0.00,,,0.01,Wunderground v.1.15,2013-01-11 02:06:00,
2013-01-10 21:11:00,38.5,34.1,30.07,East,89,7.0,7.0,84,0.00,,,0.02,Wunderground v.1.15,2013-01-11 02:11:00,
2013-01-10 21:17:00,38.3,33.6,30.05,ENE,75,5.0,7.0,83,0.00,,,0.02,Wunderground v.1.15,2013-01-11 02:17:00,
2013-01-10 21:22:00,38.2,35.5,30.05,East,90,5.0,8.0,90,0.00,,,0.02,Wunderground v.1.15,2013-01-11 02:22:00,
2013-01-10 21:27:00,38.2,34.7,30.05,East,85,5.0,12.0,87,0.00,,,0.02,Wunderground v.1.15,2013-01-11 02:27:00,
2013-01-10 21:34:00,38.0,35.9,30.05,ENE,65,6.0,6.0,92,0.00,,,0.03,Wunderground v.1.15,2013-01-11 02:34:00,
2013-01-10 21:39:00,37.9,35.2,30.05,East,89,6.0,8.0,90,0.00,,,0.03,Wunderground v.1.15,2013-01-11 02:39:00,
2013-01-10 21:44:00,37.9,35.5,30.05,East,83,5.0,7.0,91,0.00,,,0.03,Wunderground v.1.15,2013-01-11 02:44:00,
2013-01-10 21:49:00,37.9,36.3,30.04,East,95,4.0,7.0,94,0.00,,,0.03,Wunderground v.1.15,2013-01-11 02:49:00,
2013-01-10 21:54:00,37.9,36.1,30.04,ENE,64,4.0,10.0,93,0.00,,,0.04,Wunderground v.1.15,2013-01-11 02:54:00,
2013-01-10 22:00:00,37.9,35.8,30.03,ENE,76,5.0,5.0,92,0.00,,,0.04,Wunderground v.1.15,2013-01-11 03:00:00,
2013-01-10 22:06:00,37.8,36.5,30.03,East,82,5.0,17.0,95,0.00,,,0.04,Wunderground v.1.15,2013-01-11 03:06:00,
2013-01-10 22:11:00,37.6,37.1,30.03,East,89,4.0,4.0,98,0.00,,,0.04,Wunderground v.1.15,2013-01-11 03:11:00,
2013-01-10 22:16:00,37.8,37.8,30.02,East,86,3.0,5.0,100,0.00,,,0.04,Wunderground v.1.15,2013-01-11 03:16:00,
2013-01-10 22:21:00,37.9,37.1,30.02,East,82,3.0,10.0,97,0.00,,,0.04,Wunderground v.1.15,2013-01-11 03:21:00,
2013-01-10 22:27:00,38.5,36.7,30.02,East,82,5.0,10.0,93,0.00,,,0.04,Wunderground v.1.15,2013-01-11 03:27:00,
2013-01-10 22:32:00,38.6,37.0,30.01,ENE,69,7.0,8.0,94,0.00,,,0.04,Wunderground v.1.15,2013-01-11 03:32:00,
2013-01-10 22:39:00,38.5,36.7,30.01,East,79,5.0,8.0,93,0.00,,,0.04,Wunderground v.1.15,2013-01-11 03:39:00,
2013-01-10 22:44:00,38.6,36.5,29.99,ENE,73,6.0,12.0,92,0.00,,,0.04,Wunderground v.1.15,2013-01-11 03:44:00,
2013-01-10 22:49:00,38.5,38.0,29.99,East,90,6.0,12.0,98,0.00,,,0.04,Wunderground v.1.15,2013-01-11 03:49:00,
2013-01-10 22:55:00,38.2,38.2,29.99,East,89,6.0,12.0,100,0.00,,,0.05,Wunderground v.1.15,2013-01-11 03:55:00,
2013-01-10 23:00:00,37.9,37.9,29.99,East,93,7.0,7.0,100,0.00,,,0.05,Wunderground v.1.15,2013-01-11 04:00:00,
2013-01-10 23:06:00,37.9,37.9,29.99,ESE,102,6.0,13.0,100,0.00,,,0.05,Wunderground v.1.15,2013-01-11 04:06:00,
2013-01-10 23:11:00,37.6,37.6,29.99,NE,55,5.0,10.0,100,0.04,,,0.06,Wunderground v.1.15,2013-01-11 04:11:00,
2013-01-10 23:16:00,37.5,37.5,29.97,ENE,76,5.0,12.0,100,0.07,,,0.07,Wunderground v.1.15,2013-01-11 04:16:00,
2013-01-10 23:21:00,37.3,37.3,29.97,ESE,113,6.0,6.0,100,0.07,,,0.07,Wunderground v.1.15,2013-01-11 04:21:00,
2013-01-10 23:27:00,37.3,37.3,29.97,East,95,5.0,7.0,100,0.05,,,0.08,Wunderground v.1.15,2013-01-11 04:27:00,
2013-01-10 23:32:00,37.3,37.3,29.97,ESE,102,5.0,6.0,100,0.05,,,0.08,Wunderground v.1.15,2013-01-11 04:32:00,
2013-01-10 23:39:00,37.3,37.3,29.97,East,88,5.0,13.0,100,0.05,,,0.08,Wunderground v.1.15,2013-01-11 04:39:00,
2013-01-10 23:44:00,37.5,37.5,29.97,ENE,72,6.0,10.0,100,0.00,,,0.08,Wunderground v.1.15,2013-01-11 04:44:00,
2013-01-10 23:49:00,37.6,37.6,29.97,East,92,4.0,10.0,100,0.00,,,0.08,Wunderground v.1.15,2013-01-11 04:49:00,
2013-01-10 23:55:00,37.8,37.8,29.97,East,99,4.0,8.0,100,0.28,,,0.10,Wunderground v.1.15,2013-01-11 04:55:00,